createdAt,value
2018-03-07T00:00:20.378Z,80.25
2018-03-07T00:02:49.115Z,80.10
2018-03-07T00:05:19.234Z,80.08
2018-03-07T00:07:48.119Z,80.40
2018-03-07T00:10:23.236Z,80.38
2018-03-07T00:12:52.074Z,80.07
2018-03-07T00:15:21.461Z,80.13
2018-03-07T00:17:50.403Z,80.12
2018-03-07T00:20:19.402Z,80.05
2018-03-07T00:22:48.376Z,79.83
2018-03-07T00:25:17.714Z,80.14
2018-03-07T00:27:47.481Z,80.60
2018-03-07T00:30:16.792Z,80.83
2018-03-07T00:32:45.774Z,80.88
2018-03-07T00:35:14.592Z,81.19
2018-03-07T00:37:43.377Z,81.16
2018-03-07T00:40:13.872Z,81.10
2018-03-07T00:42:43.836Z,81.13
2018-03-07T00:48:06.714Z,82.21
2018-03-07T00:50:36.936Z,82.30
2018-03-07T00:53:05.771Z,81.35
2018-03-07T00:55:36.198Z,82.58
2018-03-07T00:58:05.758Z,82.97
2018-03-07T01:00:34.623Z,82.94
2018-03-07T01:03:03.722Z,82.53
2018-03-07T01:05:34.267Z,82.73
2018-03-07T01:08:04.547Z,82.25
2018-03-07T01:10:33.973Z,82.09
2018-03-07T01:13:03.464Z,83.03
2018-03-07T01:15:32.295Z,82.95
2018-03-07T01:18:03.754Z,83.14
2018-03-07T01:20:32.997Z,82.84
2018-03-07T01:23:02.333Z,83.04
2018-03-07T01:25:31.436Z,82.79
2018-03-07T01:28:00.350Z,82.68
2018-03-07T01:30:29.746Z,82.84
2018-03-07T01:32:59.998Z,82.56
2018-03-07T01:35:28.931Z,83.16
2018-03-07T01:37:57.750Z,83.06
2018-03-07T01:40:26.537Z,83.31
2018-03-07T01:42:55.356Z,83.47
2018-03-07T01:45:24.151Z,83.45
2018-03-07T01:47:52.921Z,83.85
2018-03-07T01:50:21.715Z,84.06
2018-03-07T01:52:50.520Z,83.75
2018-03-07T01:55:19.327Z,83.76
2018-03-07T01:57:48.338Z,84.16
2018-03-07T02:00:17.078Z,83.41
2018-03-07T02:02:45.858Z,83.06
2018-03-07T02:05:14.727Z,83.65
2018-03-07T02:07:45.846Z,84.06
2018-03-07T02:10:14.642Z,84.39
2018-03-07T02:12:43.455Z,84.62
2018-03-07T02:15:14.798Z,84.23
2018-03-07T02:17:43.601Z,83.87
2018-03-07T02:20:12.505Z,84.15
2018-03-07T02:22:41.337Z,83.90
2018-03-07T02:25:10.136Z,84.28
2018-03-07T02:30:11.159Z,84.18
2018-03-07T02:32:39.994Z,84.25
2018-03-07T02:35:09.499Z,84.47
2018-03-07T02:37:38.631Z,84.54
2018-03-07T02:40:08.196Z,84.56
2018-03-07T02:42:36.970Z,84.28
2018-03-07T02:45:06.712Z,84.29
2018-03-07T02:47:36.134Z,84.33
2018-03-07T02:50:05.039Z,84.74
2018-03-07T04:07:48.358Z,85.60
2018-03-07T04:10:17.255Z,85.60
2018-03-07T04:12:46.075Z,85.95
2018-03-07T04:15:16.131Z,86.50
2018-03-07T04:17:45.305Z,86.60
2018-03-07T04:20:14.578Z,86.21
2018-03-07T04:22:43.378Z,86.18
2018-03-07T04:25:12.312Z,86.00
2018-03-07T04:27:41.238Z,86.17
2018-03-07T04:30:11.008Z,86.02
2018-03-07T04:32:40.151Z,86.10
2018-03-07T04:35:10.924Z,86.20
2018-03-07T04:37:40.500Z,86.14
2018-03-07T04:40:09.888Z,86.06
2018-03-07T04:42:39.159Z,85.79
2018-03-07T04:45:09.627Z,85.77
2018-03-07T04:47:38.556Z,85.97
2018-03-07T04:50:08.104Z,85.63
2018-03-07T04:54:18.202Z,86.17
2018-03-07T04:56:46.995Z,85.75
2018-03-07T04:59:15.950Z,85.58
2018-03-07T05:01:46.443Z,85.48
2018-03-07T05:04:15.244Z,85.22
2018-03-07T05:06:44.109Z,84.69
2018-03-07T05:09:12.932Z,85.21
2018-03-07T05:11:43.111Z,85.15
2018-03-07T05:14:12.060Z,85.27
2018-03-07T05:16:41.139Z,84.90
2018-03-07T05:19:09.946Z,84.96
2018-03-07T05:21:39.113Z,85.10
2018-03-07T05:24:08.031Z,85.07
2018-03-07T05:26:36.998Z,84.81
2018-03-07T05:29:06.673Z,84.87
2018-03-07T05:31:41.708Z,84.60
2018-03-07T05:34:10.600Z,84.51
2018-03-07T05:36:39.504Z,84.62
2018-03-07T05:39:08.403Z,84.31
2018-03-07T05:41:37.463Z,84.83
2018-03-07T05:44:06.332Z,85.12
2018-03-07T05:46:35.162Z,84.48
2018-03-07T05:49:04.077Z,84.29
2018-03-07T05:51:32.898Z,84.17
2018-03-07T05:54:01.791Z,83.76
2018-03-07T05:56:30.818Z,83.63
2018-03-07T05:58:59.951Z,83.56
2018-03-07T06:01:28.873Z,83.67
2018-03-07T06:03:57.805Z,83.70
2018-03-07T06:06:26.861Z,83.28
2018-03-07T06:08:55.779Z,83.37
2018-03-07T06:11:24.658Z,83.09
2018-03-07T06:13:53.523Z,83.29
2018-03-07T06:16:22.658Z,83.51
2018-03-07T06:18:51.495Z,83.03
2018-03-07T06:21:20.442Z,82.37
2018-03-07T06:23:49.287Z,82.42
2018-03-07T06:26:19.002Z,81.74
2018-03-07T06:28:47.887Z,81.76
2018-03-07T06:31:16.675Z,81.50
2018-03-07T06:33:48.516Z,81.70
2018-03-07T06:36:17.677Z,81.24
2018-03-07T06:38:55.633Z,81.18
2018-03-07T06:41:31.165Z,80.89
2018-03-07T06:46:46.333Z,80.31
2018-03-07T06:50:21.721Z,80.77
2018-03-07T06:52:51.590Z,80.16
2018-03-07T06:55:20.625Z,79.49
2018-03-07T06:57:50.384Z,79.89
2018-03-07T07:00:19.395Z,80.13
2018-03-07T07:02:49.197Z,80.26
2018-03-07T07:05:18.245Z,79.29
2018-03-07T07:07:47.653Z,78.80
2018-03-07T07:10:16.771Z,78.18
2018-03-07T07:12:45.715Z,78.04
2018-03-07T07:15:14.477Z,77.07
2018-03-07T07:17:43.601Z,77.38
2018-03-07T07:20:12.594Z,76.78
2018-03-07T07:22:41.439Z,76.20
2018-03-07T07:25:10.591Z,75.60
2018-03-07T07:27:39.542Z,75.42
2018-03-07T07:30:09.293Z,74.80
2018-03-07T07:32:38.316Z,74.81
2018-03-07T07:35:07.889Z,74.81
2018-03-07T07:37:36.748Z,73.70
2018-03-07T07:40:06.444Z,72.18
2018-03-07T07:42:35.688Z,71.04
2018-03-07T07:45:04.776Z,69.35
2018-03-07T07:47:33.677Z,70.70
2018-03-07T07:50:02.593Z,70.63
2018-03-07T07:52:32.799Z,71.44
2018-03-07T07:55:01.630Z,71.42
2018-03-07T07:57:30.436Z,71.38
2018-03-07T07:59:59.577Z,71.69
2018-03-07T08:02:28.380Z,70.10
2018-03-07T08:04:57.319Z,66.82
2018-03-07T08:07:26.750Z,63.47
2018-03-07T08:09:55.977Z,61.37
2018-03-07T08:12:25.525Z,60.84
2018-03-07T08:14:54.536Z,61.46
2018-03-07T08:17:23.445Z,62.74
2018-03-07T08:19:52.830Z,63.22
2018-03-07T08:22:22.500Z,63.47
2018-03-07T08:24:52.852Z,61.70
2018-03-07T08:27:21.713Z,59.68
2018-03-07T08:29:50.570Z,54.98
2018-03-07T08:32:19.384Z,56.87
2018-03-07T08:34:48.561Z,55.61
2018-03-07T08:37:17.418Z,53.98
2018-03-07T08:39:46.266Z,55.57
2018-03-07T08:42:15.145Z,57.50
2018-03-07T08:44:44.300Z,57.55
2018-03-07T08:47:13.220Z,57.52
2018-03-07T08:49:42.188Z,55.92
2018-03-07T08:52:11.018Z,53.79
2018-03-07T08:54:40.182Z,49.61
2018-03-07T08:57:08.997Z,47.42
2018-03-07T08:59:37.824Z,43.23
2018-03-07T09:02:06.824Z,42.48
2018-03-07T09:04:35.652Z,43.19
2018-03-07T09:07:04.473Z,44.72
2018-03-07T09:09:33.349Z,45.08
2018-03-07T09:12:02.250Z,45.23
2018-03-07T09:14:31.168Z,45.08
2018-03-07T09:17:01.850Z,42.39
2018-03-07T09:19:30.740Z,41.76
2018-03-07T09:21:59.598Z,44.51
2018-03-07T09:24:28.545Z,47.93
2018-03-07T09:26:57.398Z,49.00
2018-03-07T09:29:26.283Z,49.50
2018-03-07T09:31:55.517Z,50.23
2018-03-07T09:34:24.317Z,50.29
2018-03-07T09:36:53.151Z,51.53
2018-03-07T09:39:22.115Z,52.11
2018-03-07T09:41:51.319Z,52.92
2018-03-07T09:44:20.211Z,53.02
2018-03-07T09:46:49.121Z,53.27
2018-03-07T09:49:17.998Z,52.92
2018-03-07T09:51:47.064Z,54.18
2018-03-07T09:54:15.905Z,52.96
2018-03-07T09:56:45.529Z,53.46
2018-03-07T09:59:14.418Z,53.69
2018-03-07T10:01:43.536Z,55.57
2018-03-07T10:04:12.567Z,57.23
2018-03-07T10:06:41.445Z,59.12
2018-03-07T10:09:10.687Z,58.87
2018-03-07T10:11:41.313Z,58.25
2018-03-07T10:14:10.205Z,57.59
2018-03-07T10:16:39.229Z,55.69
2018-03-07T10:19:08.998Z,52.51
2018-03-07T10:21:38.798Z,51.80
2018-03-07T10:24:07.691Z,50.00
2018-03-07T10:26:36.833Z,50.03
2018-03-07T10:29:05.715Z,48.85
2018-03-07T10:31:34.608Z,49.35
2018-03-07T10:34:03.411Z,50.11
2018-03-07T10:36:33.784Z,48.93
2018-03-07T10:39:03.004Z,47.86
2018-03-07T10:41:32.177Z,47.80
2018-03-07T10:44:01.006Z,48.42
2018-03-07T10:46:31.380Z,47.88
2018-03-07T10:49:00.599Z,48.81
2018-03-07T10:51:29.380Z,48.05
2018-03-07T10:53:58.244Z,47.87
2018-03-07T10:56:28.278Z,47.13
2018-03-07T10:58:57.028Z,45.87
2018-03-07T11:01:26.035Z,45.30
2018-03-07T11:03:54.943Z,45.07
2018-03-07T11:06:24.124Z,44.08
2018-03-07T11:08:52.970Z,44.22
2018-03-07T11:11:22.420Z,44.24
2018-03-07T11:13:51.306Z,43.58
2018-03-07T11:16:20.242Z,42.14
2018-03-07T11:18:49.079Z,42.41
2018-03-07T11:21:18.023Z,42.18
2018-03-07T11:23:49.332Z,42.39
2018-03-07T11:26:18.155Z,42.07
2018-03-07T11:28:48.957Z,42.00
2018-03-07T11:31:18.066Z,41.95
2018-03-07T11:33:46.956Z,42.57
2018-03-07T11:36:15.767Z,42.50
2018-03-07T11:38:44.725Z,42.49
2018-03-07T11:41:13.638Z,42.56
2018-03-07T11:43:42.984Z,42.83
2018-03-07T11:46:12.800Z,43.05
2018-03-07T11:48:41.592Z,43.34
2018-03-07T11:51:10.388Z,43.12
2018-03-07T11:53:39.331Z,43.19
2018-03-07T11:56:08.158Z,43.37
2018-03-07T11:58:36.748Z,43.72
2018-03-07T12:01:05.293Z,42.72
2018-03-07T12:03:34.306Z,43.19
2018-03-07T12:06:02.850Z,42.51
2018-03-07T12:08:32.325Z,42.62
2018-03-07T12:11:01.194Z,42.49
2018-03-07T12:13:29.876Z,42.95
2018-03-07T12:15:59.047Z,42.16
2018-03-07T12:18:29.295Z,42.30
2018-03-07T12:20:57.856Z,43.02
2018-03-07T12:23:26.508Z,43.33
2018-03-07T12:25:55.095Z,42.74
2018-03-07T12:28:26.400Z,42.31
2018-03-07T12:30:54.951Z,42.75
2018-03-07T12:33:23.502Z,42.57
2018-03-07T12:35:52.105Z,42.25
2018-03-07T12:38:20.910Z,42.56
2018-03-07T12:40:52.749Z,42.46
2018-03-07T12:43:21.387Z,41.45
2018-03-07T12:45:50.047Z,41.55
2018-03-07T12:48:18.624Z,41.33
2018-03-07T12:50:48.469Z,41.50
2018-03-07T12:53:17.119Z,41.90
2018-03-07T12:55:45.759Z,41.98
2018-03-07T12:58:14.308Z,42.33
2018-03-07T13:00:44.360Z,43.04
2018-03-07T13:03:13.562Z,43.60
2018-03-07T13:05:44.130Z,43.50
2018-03-07T13:08:12.799Z,44.47
2018-03-07T13:10:41.689Z,44.86
2018-03-07T13:13:10.272Z,45.54
2018-03-07T13:15:38.902Z,45.46
2018-03-07T13:18:07.953Z,46.21
2018-03-07T13:20:36.859Z,45.84
2018-03-07T13:23:05.496Z,46.11
2018-03-07T13:25:36.559Z,46.71
2018-03-07T13:28:05.300Z,46.80
2018-03-07T13:30:34.098Z,47.17
2018-03-07T13:33:04.398Z,47.53
2018-03-07T13:35:33.139Z,47.42
2018-03-07T13:38:01.766Z,45.75
2018-03-07T13:40:30.510Z,45.38
2018-03-07T13:43:00.896Z,45.14
2018-03-07T13:45:30.118Z,44.63
2018-03-07T13:47:58.668Z,43.79
2018-03-07T13:50:28.441Z,42.79
2018-03-07T13:52:57.278Z,43.33
2018-03-07T13:55:26.677Z,44.83
2018-03-07T13:57:55.340Z,44.35
2018-03-07T14:00:24.341Z,44.68
2018-03-07T14:02:53.918Z,44.57
2018-03-07T14:05:22.465Z,44.15
2018-03-07T14:07:52.211Z,43.59
2018-03-07T14:10:25.429Z,42.94
2018-03-07T14:12:54.216Z,42.32
2018-03-07T14:15:23.052Z,42.04
2018-03-07T14:17:51.653Z,41.41
2018-03-07T14:20:20.284Z,40.55
2018-03-07T14:22:48.860Z,40.48
2018-03-07T14:25:17.513Z,40.07
2018-03-07T14:27:47.090Z,40.28
2018-03-07T14:30:15.516Z,39.58
2018-03-07T14:32:46.170Z,39.84
2018-03-07T14:35:14.765Z,39.76
2018-03-07T14:37:43.367Z,38.68
2018-03-07T14:40:12.454Z,39.71
2018-03-07T14:42:42.220Z,39.36
2018-03-07T14:45:11.114Z,38.67
2018-03-07T14:47:40.986Z,39.16
2018-03-07T14:50:09.768Z,39.40
2018-03-07T14:52:38.487Z,39.54
2018-03-07T14:55:08.808Z,39.28
2018-03-07T14:57:38.439Z,39.97
2018-03-07T15:00:08.067Z,40.17
2018-03-07T15:02:37.359Z,40.44
2018-03-07T15:05:07.009Z,41.74
2018-03-07T15:07:35.608Z,42.09
2018-03-07T15:10:04.851Z,42.21
2018-03-07T15:12:33.478Z,42.39
2018-03-07T15:15:02.119Z,41.83
2018-03-07T15:17:30.828Z,40.66
2018-03-07T15:20:07.097Z,41.47
2018-03-07T15:22:35.957Z,41.73
2018-03-07T15:25:05.563Z,42.40
2018-03-07T15:27:34.323Z,42.34
2018-03-07T15:30:03.123Z,42.76
2018-03-07T15:32:33.076Z,42.86
2018-03-07T15:35:01.784Z,43.06
2018-03-07T15:37:30.479Z,43.93
2018-03-07T15:40:00.085Z,44.22
2018-03-07T15:42:28.609Z,44.00
2018-03-07T15:44:57.136Z,44.03
2018-03-07T15:47:25.680Z,44.15
2018-03-07T15:49:54.560Z,44.30
2018-03-07T15:52:23.148Z,45.05
2018-03-07T15:54:51.734Z,44.54
2018-03-07T15:57:22.171Z,45.46
2018-03-07T15:59:51.981Z,45.54
2018-03-07T16:02:20.964Z,45.45
2018-03-07T16:04:49.535Z,45.70
2018-03-07T16:07:20.072Z,45.74
2018-03-07T16:09:48.850Z,45.71
2018-03-07T16:12:18.276Z,45.50
2018-03-07T16:14:47.432Z,45.80
2018-03-07T16:17:16.068Z,46.50
2018-03-07T16:19:45.705Z,47.63
2018-03-07T16:22:14.330Z,48.29
2018-03-07T16:24:43.939Z,51.08
2018-03-07T16:27:12.956Z,55.89
2018-03-07T16:29:41.614Z,57.84
2018-03-07T16:32:10.409Z,58.48
2018-03-07T16:34:38.995Z,60.06
2018-03-07T16:37:08.012Z,60.25
2018-03-07T16:39:36.709Z,60.64
2018-03-07T16:42:05.492Z,61.28
2018-03-07T16:44:34.153Z,63.96
2018-03-07T16:47:02.852Z,65.56
2018-03-07T16:49:32.704Z,65.45
2018-03-07T16:52:01.626Z,67.39
2018-03-07T16:54:30.585Z,66.63
2018-03-07T16:56:59.197Z,66.21
2018-03-07T16:59:28.402Z,66.67
2018-03-07T17:01:58.112Z,67.50
2018-03-07T17:04:33.565Z,67.72
2018-03-07T17:07:02.180Z,68.65
2018-03-07T17:09:30.978Z,68.77
2018-03-07T17:11:59.882Z,69.15
2018-03-07T17:14:28.792Z,69.35
2018-03-07T17:16:58.267Z,69.84
2018-03-07T17:19:26.944Z,70.79
2018-03-07T17:21:55.688Z,71.31
2018-03-07T17:24:25.103Z,71.48
2018-03-07T17:26:54.232Z,71.78
2018-03-07T17:29:24.819Z,71.15
2018-03-07T17:31:55.047Z,69.45
2018-03-07T17:34:33.213Z,70.06
2018-03-07T17:37:03.077Z,65.07
2018-03-07T17:39:36.771Z,66.95
2018-03-07T17:42:07.777Z,67.67
2018-03-07T17:44:38.582Z,67.50
2018-03-07T17:47:07.536Z,69.19
2018-03-07T17:49:36.220Z,69.42
2018-03-07T17:52:06.036Z,69.81
2018-03-07T17:54:35.645Z,69.64
2018-03-07T17:57:08.167Z,69.43
2018-03-07T17:59:36.914Z,70.21
2018-03-07T18:02:07.247Z,70.09
2018-03-07T18:04:36.777Z,70.19
2018-03-07T18:07:06.370Z,71.25
2018-03-07T18:09:35.447Z,70.44
2018-03-07T18:12:06.151Z,70.25
2018-03-07T18:14:37.533Z,70.60
2018-03-07T18:17:11.029Z,70.41
2018-03-07T18:19:39.773Z,67.23
2018-03-07T18:22:08.790Z,64.94
2018-03-07T18:24:38.929Z,64.12
2018-03-07T18:27:08.511Z,62.63
2018-03-07T18:29:38.089Z,62.72
2018-03-07T18:32:07.050Z,62.10
2018-03-07T18:34:35.881Z,62.67
2018-03-07T18:37:06.301Z,62.90
2018-03-07T18:39:35.447Z,62.62
2018-03-07T18:42:06.426Z,63.25
2018-03-07T18:44:35.196Z,63.81
2018-03-07T18:47:05.361Z,64.38
2018-03-07T18:49:34.152Z,64.36
2018-03-07T18:52:02.772Z,64.66
2018-03-07T18:54:31.544Z,64.86
2018-03-07T18:57:01.125Z,64.92
2018-03-07T18:59:31.933Z,65.14
2018-03-07T19:02:03.204Z,66.26
2018-03-07T19:04:35.256Z,66.76
2018-03-07T19:07:06.372Z,67.77
2018-03-07T19:09:35.371Z,68.01
2018-03-07T19:12:06.436Z,67.70
2018-03-07T19:14:35.143Z,68.39
2018-03-07T19:17:04.880Z,68.55
2018-03-07T19:19:33.869Z,69.28
2018-03-07T19:22:07.259Z,69.44
2018-03-07T19:27:16.964Z,69.72
2018-03-07T19:29:45.632Z,69.68
2018-03-07T19:32:15.173Z,70.09
2018-03-07T19:37:13.898Z,71.09
2018-03-07T19:39:44.128Z,71.40
2018-03-07T19:42:13.984Z,71.86
2018-03-07T19:44:43.394Z,72.09
2018-03-07T19:47:14.194Z,71.67
2018-03-07T19:49:43.889Z,71.29
2018-03-07T19:52:13.362Z,71.02
2018-03-07T19:54:52.416Z,71.23
2018-03-07T19:57:21.360Z,72.21
2018-03-07T19:59:50.011Z,73.10
2018-03-07T20:02:19.162Z,72.83
2018-03-07T20:04:50.706Z,73.22
2018-03-07T20:07:19.649Z,72.90
2018-03-07T20:09:50.616Z,72.37
2018-03-07T20:12:21.462Z,71.92
2018-03-07T20:14:50.737Z,72.18
2018-03-07T20:17:20.141Z,72.55
2018-03-07T20:19:49.518Z,72.41
2018-03-07T20:22:19.612Z,72.61
2018-03-07T20:24:48.427Z,73.07
2018-03-07T20:27:17.354Z,72.32
2018-03-07T20:29:48.063Z,72.13
2018-03-07T20:32:16.809Z,72.17
2018-03-07T20:34:45.473Z,71.67
2018-03-07T20:37:19.353Z,71.82
2018-03-07T20:39:48.268Z,72.74
2018-03-07T20:42:17.140Z,72.41
2018-03-07T20:44:46.779Z,72.78
2018-03-07T20:47:20.899Z,72.45
2018-03-07T20:49:50.573Z,72.27
2018-03-07T20:52:20.105Z,71.93
2018-03-07T20:54:48.695Z,71.00
2018-03-07T20:57:17.647Z,70.35
2018-03-07T20:59:48.456Z,69.90
2018-03-07T21:02:17.632Z,69.04
2018-03-07T21:04:48.732Z,69.33
2018-03-07T21:07:17.668Z,69.27
2018-03-07T21:09:48.350Z,69.62
2018-03-07T21:12:18.295Z,69.61
2018-03-07T21:14:47.348Z,69.11
2018-03-07T21:17:15.941Z,69.34
2018-03-07T21:19:45.089Z,68.97
2018-03-07T21:22:13.612Z,69.03
2018-03-07T21:24:42.170Z,68.86
2018-03-07T21:27:11.060Z,68.97
2018-03-07T21:29:40.296Z,69.14
2018-03-07T21:32:09.070Z,68.76
2018-03-07T21:34:37.766Z,69.18
2018-03-07T21:37:07.676Z,69.43
2018-03-07T21:39:37.716Z,69.59
2018-03-07T21:42:06.230Z,69.64
2018-03-07T21:44:34.871Z,69.60
2018-03-07T21:47:03.641Z,69.92
2018-03-07T21:49:32.212Z,70.19
2018-03-07T21:52:00.913Z,70.19
2018-03-07T21:54:29.722Z,70.38
2018-03-07T21:56:58.258Z,70.37
2018-03-07T21:59:26.871Z,70.45
2018-03-07T22:01:55.499Z,70.61
2018-03-07T22:04:25.331Z,70.99
2018-03-07T22:06:54.834Z,70.93
2018-03-07T22:09:24.225Z,71.26
2018-03-07T22:11:52.756Z,71.21
2018-03-07T22:14:21.397Z,71.42
2018-03-07T22:16:49.996Z,71.92
2018-03-07T22:19:18.816Z,71.79
2018-03-07T22:21:47.986Z,71.56
2018-03-07T22:24:16.689Z,71.65
2018-03-07T22:26:45.242Z,71.55
2018-03-07T22:29:13.856Z,71.13
2018-03-07T22:31:42.401Z,70.80
2018-03-07T22:34:15.026Z,70.56
2018-03-07T22:36:43.654Z,71.19
2018-03-07T22:39:12.301Z,71.06
2018-03-07T22:41:41.925Z,71.06
2018-03-07T22:44:10.511Z,70.82
2018-03-07T22:46:39.184Z,70.84
2018-03-07T22:49:15.935Z,71.10
2018-03-07T22:51:44.684Z,71.26
2018-03-07T22:54:13.565Z,71.14
2018-03-07T22:56:42.215Z,70.79
2018-03-07T22:59:11.984Z,71.30
2018-03-07T23:01:40.740Z,71.14
2018-03-07T23:04:09.412Z,71.61
2018-03-07T23:06:37.978Z,71.58
2018-03-07T23:09:07.197Z,71.62
2018-03-07T23:11:35.737Z,71.54
2018-03-07T23:14:04.794Z,71.82
2018-03-07T23:16:33.670Z,71.91
2018-03-07T23:19:02.704Z,72.25
2018-03-07T23:21:31.967Z,72.68
2018-03-07T23:24:01.999Z,73.59
2018-03-07T23:26:31.650Z,73.17
2018-03-07T23:29:00.593Z,73.48
2018-03-07T23:31:29.257Z,73.16
2018-03-07T23:33:57.984Z,73.30
2018-03-07T23:36:26.625Z,73.37
2018-03-07T23:38:55.665Z,73.12
2018-03-07T23:41:25.987Z,73.25
2018-03-07T23:43:54.548Z,73.00
2018-03-07T23:46:23.096Z,73.10
2018-03-07T23:48:51.589Z,73.73
2018-03-07T23:51:20.536Z,73.73
2018-03-07T23:53:49.193Z,73.66
2018-03-07T23:56:17.979Z,73.55
2018-03-07T23:58:46.604Z,73.89
